Ms-hamaritha — PF2437 — position and weather

sailwx.info

Track history (hours):
 
Tides and Currents Weather Stations Pressure Air Temp Water Temp Dewpoint Dewpoint Depression Visibility Wind Speed Wind Dir Waves Ship Positions

Ms-hamaritha

Last reported at 2015-Feb-20 06:14 UTC. Time now 2015-Feb-28 06:57 UTC.
Position N 50°52' E 007°01'.
Warning: this ship's position is 8 days out of date.

Length 86 m.

Type: Ship. MMSI: 244700691.

Date/timePositionNaut miles runAvg speedWind from/ knotsBaromVisibWave heightAir tempDewpointWater temp
2015-Feb-20 06:14N 50°52' E 007°01'3 2.2
2015-Feb-20 05:03N 50°54' E 006°59'13 1.2
2015-Feb-19 18:03N 51°06' E 006°53'2 4.0
2015-Feb-19 17:29N 51°08' E 006°51'2 1.8
2015-Feb-19 16:33N 51°09' E 006°48'3 3.0
2015-Feb-19 15:33N 51°11' E 006°45'3 2.7
2015-Feb-19 14:33N 51°14' E 006°45'  
2015-Feb-16 12:33N 51°56' E 004°53'6 6.5
2015-Feb-16 11:33N 51°59' E 005°02'5 5.4
2015-Feb-16 10:33N 52°04' E 005°06'3 3.3
2015-Feb-16 09:34N 52°07' E 005°04'0 0.1
2015-Feb-16 08:33N 52°07' E 005°04'0 0.0
2015-Feb-16 07:33N 52°07' E 005°04'0 0.3
2015-Feb-16 06:33N 52°06' E 005°04'0 0.0
2015-Feb-16 05:33N 52°06' E 005°04'0 0.0
2015-Feb-16 04:33N 52°06' E 005°04'0 0.0
2015-Feb-16 03:33N 52°06' E 005°04'0 0.0
2015-Feb-16 02:33N 52°06' E 005°04'0 0.0
2015-Feb-16 01:33N 52°06' E 005°04'0 0.0
2015-Feb-16 00:33N 52°06' E 005°04'0 0.0
2015-Feb-15 23:33N 52°06' E 005°04'0 0.0
2015-Feb-15 22:33N 52°06' E 005°04'0 0.0
2015-Feb-15 21:33N 52°06' E 005°04'0 0.0
2015-Feb-15 20:33N 52°06' E 005°04'0 0.0
2015-Feb-15 19:33N 52°06' E 005°04'0 0.0
2015-Feb-15 18:33N 52°06' E 005°04'0 0.0
2015-Feb-15 17:33N 52°06' E 005°04'0 0.0
2015-Feb-15 16:33N 52°06' E 005°04'0 0.0
2015-Feb-15 15:33N 52°06' E 005°04'0 0.0
2015-Feb-15 14:33N 52°06' E 005°04'0 0.0
2015-Feb-15 13:33N 52°06' E 005°04'0 0.0
2015-Feb-15 12:33N 52°06' E 005°04'0 0.0
2015-Feb-15 11:33N 52°06' E 005°04'0 0.0
2015-Feb-15 10:33N 52°06' E 005°04'0 0.0
2015-Feb-15 09:33N 52°06' E 005°04'0 0.0
2015-Feb-15 08:33N 52°06' E 005°04'0 0.0
2015-Feb-15 07:33N 52°06' E 005°04'0 0.0
2015-Feb-15 06:33N 52°06' E 005°04'0 0.0
2015-Feb-15 05:33N 52°06' E 005°04'0 0.0
2015-Feb-15 04:33N 52°06' E 005°04'0 0.0
2015-Feb-15 03:33N 52°06' E 005°04'0 0.0
2015-Feb-15 02:33N 52°06' E 005°04'0 0.0
2015-Feb-15 01:33N 52°06' E 005°04'0 0.0
2015-Feb-15 00:33N 52°06' E 005°04'0 0.0
2015-Feb-14 23:34N 52°06' E 005°04'0 0.0
2015-Feb-14 22:33N 52°06' E 005°04'0 0.0
2015-Feb-14 21:33N 52°06' E 005°04'0 0.0
2015-Feb-14 20:33N 52°06' E 005°04'0 0.0
2015-Feb-14 19:33N 52°06' E 005°04'0 0.0
2015-Feb-14 18:33N 52°06' E 005°04'0 0.0
2015-Feb-14 17:34N 52°06' E 005°04'0 0.0
2015-Feb-14 16:33N 52°06' E 005°04'0 0.0
2015-Feb-14 15:33N 52°06' E 005°04'0 0.0
2015-Feb-14 14:33N 52°06' E 005°04'0 0.0
2015-Feb-14 13:33N 52°06' E 005°04'0 0.0
2015-Feb-14 12:33N 52°06' E 005°04'0 0.0
2015-Feb-14 11:33N 52°06' E 005°04'3 2.5
2015-Feb-14 10:33N 52°04' E 005°06'6 6.1
2015-Feb-14 09:33N 51°60' E 005°13'5 4.5
2015-Feb-14 08:34N 51°58' E 005°20'5 5.5
2015-Feb-14 07:33N 51°55' E 005°27'0 0.4
2015-Feb-14 06:33N 51°54' E 005°27'0 0.0
2015-Feb-14 05:33N 51°54' E 005°27'0 0.0
2015-Feb-14 04:34N 51°54' E 005°27'0 0.0
2015-Feb-14 03:33N 51°54' E 005°27'0 0.0
2015-Feb-14 02:33N 51°54' E 005°27'0 0.0
2015-Feb-14 01:33N 51°54' E 005°27'0 0.0
2015-Feb-14 00:33N 51°54' E 005°27'0 0.0
2015-Feb-13 23:33N 51°54' E 005°27'0 0.0
2015-Feb-13 22:34N 51°54' E 005°27'0 0.0
2015-Feb-13 21:34N 51°54' E 005°27'0 0.0
2015-Feb-13 20:34N 51°54' E 005°27'0 0.0
2015-Feb-13 19:33N 51°54' E 005°27'0 0.0
2015-Feb-13 18:33N 51°54' E 005°27'0 0.0
2015-Feb-13 17:33N 51°54' E 005°27'0 0.0
2015-Feb-13 16:33N 51°54' E 005°27'1 1.4
2015-Feb-13 15:33N 51°53' E 005°29'9 8.9
2015-Feb-13 14:34N 51°53' E 005°43'63 3.3
2015-Feb-12 19:18N 51°39' E 007°22'5 0.2
2015-Feb-11 12:33N 51°36' E 007°30'0 0.0
2015-Feb-11 11:20N 51°36' E 007°30'0 0.0
2015-Feb-11 10:31N 51°36' E 007°30'0 0.0
2015-Feb-11 09:34N 51°36' E 007°30'0 0.0
2015-Feb-11 08:32N 51°36' E 007°30'0 0.0
2015-Feb-11 07:34N 51°36' E 007°30'0 0.0
2015-Feb-11 06:33N 51°36' E 007°30'0 0.0
2015-Feb-11 04:17N 51°36' E 007°30'0 0.0
2015-Feb-11 03:30N 51°36' E 007°30'0 0.0
2015-Feb-11 02:32N 51°36' E 007°30'0 0.0
2015-Feb-11 01:31N 51°36' E 007°30'0 0.0
2015-Feb-11 00:23N 51°36' E 007°30'47 2.6
2015-Feb-10 06:28N 51°49' E 006°17'  
Track history (hours):
 
Tides and Currents Weather Stations Pressure Air Temp Water Temp Dewpoint Dewpoint Depression Visibility Wind Speed Wind Dir Waves Ship Positions

Ms-hamaritha

Last reported at 2015-Feb-20 06:14 UTC. Time now 2015-Feb-28 06:57 UTC.
Position N 50°52' E 007°01'.
Warning: this ship's position is 8 days out of date.

Length 86 m.

Type: Ship. MMSI: 244700691.

Date/timePositionNaut miles runAvg speedWind from/ knotsBaromVisibWave heightAir tempDewpointWater temp
2015-Feb-20 06:14N 50°52' E 007°01'3 2.2
2015-Feb-20 05:03N 50°54' E 006°59'13 1.2
2015-Feb-19 18:03N 51°06' E 006°53'2 4.0
2015-Feb-19 17:29N 51°08' E 006°51'2 1.8
2015-Feb-19 16:33N 51°09' E 006°48'3 3.0
2015-Feb-19 15:33N 51°11' E 006°45'3 2.7
2015-Feb-19 14:33N 51°14' E 006°45'  
2015-Feb-16 12:33N 51°56' E 004°53'6 6.5
2015-Feb-16 11:33N 51°59' E 005°02'5 5.4
2015-Feb-16 10:33N 52°04' E 005°06'3 3.3
2015-Feb-16 09:34N 52°07' E 005°04'0 0.1
2015-Feb-16 08:33N 52°07' E 005°04'0 0.0
2015-Feb-16 07:33N 52°07' E 005°04'0 0.3
2015-Feb-16 06:33N 52°06' E 005°04'0 0.0
2015-Feb-16 05:33N 52°06' E 005°04'0 0.0
2015-Feb-16 04:33N 52°06' E 005°04'0 0.0
2015-Feb-16 03:33N 52°06' E 005°04'0 0.0
2015-Feb-16 02:33N 52°06' E 005°04'0 0.0
2015-Feb-16 01:33N 52°06' E 005°04'0 0.0
2015-Feb-16 00:33N 52°06' E 005°04'0 0.0
2015-Feb-15 23:33N 52°06' E 005°04'0 0.0
2015-Feb-15 22:33N 52°06' E 005°04'0 0.0
2015-Feb-15 21:33N 52°06' E 005°04'0 0.0
2015-Feb-15 20:33N 52°06' E 005°04'0 0.0
2015-Feb-15 19:33N 52°06' E 005°04'0 0.0
2015-Feb-15 18:33N 52°06' E 005°04'0 0.0
2015-Feb-15 17:33N 52°06' E 005°04'0 0.0
2015-Feb-15 16:33N 52°06' E 005°04'0 0.0
2015-Feb-15 15:33N 52°06' E 005°04'0 0.0
2015-Feb-15 14:33N 52°06' E 005°04'0 0.0
2015-Feb-15 13:33N 52°06' E 005°04'0 0.0
2015-Feb-15 12:33N 52°06' E 005°04'0 0.0
2015-Feb-15 11:33N 52°06' E 005°04'0 0.0
2015-Feb-15 10:33N 52°06' E 005°04'0 0.0
2015-Feb-15 09:33N 52°06' E 005°04'0 0.0
2015-Feb-15 08:33N 52°06' E 005°04'0 0.0
2015-Feb-15 07:33N 52°06' E 005°04'0 0.0
2015-Feb-15 06:33N 52°06' E 005°04'0 0.0
2015-Feb-15 05:33N 52°06' E 005°04'0 0.0
2015-Feb-15 04:33N 52°06' E 005°04'0 0.0
2015-Feb-15 03:33N 52°06' E 005°04'0 0.0
2015-Feb-15 02:33N 52°06' E 005°04'0 0.0
2015-Feb-15 01:33N 52°06' E 005°04'0 0.0
2015-Feb-15 00:33N 52°06' E 005°04'0 0.0
2015-Feb-14 23:34N 52°06' E 005°04'0 0.0
2015-Feb-14 22:33N 52°06' E 005°04'0 0.0
2015-Feb-14 21:33N 52°06' E 005°04'0 0.0
2015-Feb-14 20:33N 52°06' E 005°04'0 0.0
2015-Feb-14 19:33N 52°06' E 005°04'0 0.0
2015-Feb-14 18:33N 52°06' E 005°04'0 0.0
2015-Feb-14 17:34N 52°06' E 005°04'0 0.0
2015-Feb-14 16:33N 52°06' E 005°04'0 0.0
2015-Feb-14 15:33N 52°06' E 005°04'0 0.0
2015-Feb-14 14:33N 52°06' E 005°04'0 0.0
2015-Feb-14 13:33N 52°06' E 005°04'0 0.0
2015-Feb-14 12:33N 52°06' E 005°04'0 0.0
2015-Feb-14 11:33N 52°06' E 005°04'3 2.5
2015-Feb-14 10:33N 52°04' E 005°06'6 6.1
2015-Feb-14 09:33N 51°60' E 005°13'5 4.5
2015-Feb-14 08:34N 51°58' E 005°20'5 5.5
2015-Feb-14 07:33N 51°55' E 005°27'0 0.4
2015-Feb-14 06:33N 51°54' E 005°27'0 0.0
2015-Feb-14 05:33N 51°54' E 005°27'0 0.0
2015-Feb-14 04:34N 51°54' E 005°27'0 0.0
2015-Feb-14 03:33N 51°54' E 005°27'0 0.0
2015-Feb-14 02:33N 51°54' E 005°27'0 0.0
2015-Feb-14 01:33N 51°54' E 005°27'0 0.0
2015-Feb-14 00:33N 51°54' E 005°27'0 0.0
2015-Feb-13 23:33N 51°54' E 005°27'0 0.0
2015-Feb-13 22:34N 51°54' E 005°27'0 0.0
2015-Feb-13 21:34N 51°54' E 005°27'0 0.0
2015-Feb-13 20:34N 51°54' E 005°27'0 0.0
2015-Feb-13 19:33N 51°54' E 005°27'0 0.0
2015-Feb-13 18:33N 51°54' E 005°27'0 0.0
2015-Feb-13 17:33N 51°54' E 005°27'0 0.0
2015-Feb-13 16:33N 51°54' E 005°27'1 1.4
2015-Feb-13 15:33N 51°53' E 005°29'9 8.9
2015-Feb-13 14:34N 51°53' E 005°43'63 3.3
2015-Feb-12 19:18N 51°39' E 007°22'5 0.2
2015-Feb-11 12:33N 51°36' E 007°30'0 0.0
2015-Feb-11 11:20N 51°36' E 007°30'0 0.0
2015-Feb-11 10:31N 51°36' E 007°30'0 0.0
2015-Feb-11 09:34N 51°36' E 007°30'0 0.0
2015-Feb-11 08:32N 51°36' E 007°30'0 0.0
2015-Feb-11 07:34N 51°36' E 007°30'0 0.0
2015-Feb-11 06:33N 51°36' E 007°30'0 0.0
2015-Feb-11 04:17N 51°36' E 007°30'0 0.0
2015-Feb-11 03:30N 51°36' E 007°30'0 0.0
2015-Feb-11 02:32N 51°36' E 007°30'0 0.0
2015-Feb-11 01:31N 51°36' E 007°30'0 0.0
2015-Feb-11 00:23N 51°36' E 007°30'47 2.6
2015-Feb-10 06:28N 51°49' E 006°17'  

Dump ship's entire track history